Terminal Aerodrome Forecast
Issued by NWS Sterling, VA

Current Version | Previous Version | Graphics & Text | Print | Product List | Glossary On
Versions: 1 2 3 4 5 6 7 8 9 10 11 12 13 14 15 16 17 18 19 20 21 22 23 24
000
FTUS41 KLWX 052333
TAFMRB
TAF
KMRB 052333Z 0600/0624 16005KT P6SM BKN050
     FM060500 VRB03KT 3SM BR SCT015 BKN050
     FM060900 VRB03KT 3SM -SHRA OVC008
     FM061300 10004KT P6SM -SHRA SCT008 OVC025
     FM061600 12007KT P6SM -SHRA OVC035=

USA.gov is the U.S. government's official web portal to all federal, state and local government web resources and services.